Time;durP1;ratioP1;P1;durP2;ratioP2;P2;SDS_P1;SDS_P2;PMS_P1;PMS_P2;Temp;Humidity;BMP_temperature;BMP_pressure;BME280_temperature;BME280_humidity;BME280_pressure;Samples;Min_cycle;Max_cycle;Signal;HPM_P1;HPM_P2
2023/04/05 00:02:28;;;;;;;3.20;2.90;;;;;;;-143.84;99.63;44207.53;5068954;28;20444;-74
2023/04/05 00:04:57;;;;;;;2.50;2.30;;;;;;;-143.84;99.63;44211.34;5069469;28;20444;-74
2023/04/05 00:07:25;;;;;;;2.23;2.03;;;;;;;-143.84;99.69;44211.34;5069320;28;20445;-74
2023/04/05 00:09:53;;;;;;;2.53;2.33;;;;;;;-143.84;99.78;44211.34;5069049;28;20457;-74
2023/04/05 00:12:21;;;;;;;2.87;2.67;;;;;;;-143.84;100.00;44211.34;5068635;28;20575;-74
2023/04/05 00:14:49;;;;;;;2.67;2.47;;;;;;;-143.84;99.86;44198.00;5068926;28;20449;-74
2023/04/05 00:17:16;;;;;;;2.50;2.10;;;;;;;-143.84;100.00;44205.63;5068952;28;20448;-74
2023/04/05 00:19:44;;;;;;;2.27;2.10;;;;;;;-143.84;100.00;44226.56;5068875;28;20440;-74
2023/04/05 00:22:11;;;;;;;4.10;2.30;;;;;;;-143.84;100.00;44234.19;5068606;28;20453;-74
2023/04/05 00:24:40;;;;;;;3.20;2.57;;;;;;;-143.84;100.00;44238.00;5048482;28;20445;-75
2023/04/05 00:27:08;;;;;;;2.30;2.20;;;;;;;-143.84;100.00;44228.47;5066247;28;20453;-74
2023/04/05 00:29:36;;;;;;;2.17;2.07;;;;;;;-143.84;99.92;44218.94;5068598;28;20441;-74
2023/04/05 00:32:04;;;;;;;2.67;2.47;;;;;;;-143.84;100.00;44224.66;5069030;28;20481;-74
2023/04/05 00:34:32;;;;;;;3.20;2.17;;;;;;;-143.84;99.95;44217.06;5068671;28;20868;-74
2023/04/05 00:37:00;;;;;;;2.87;2.30;;;;;;;-143.84;99.57;44205.63;5068336;28;20524;-74
2023/04/05 00:39:27;;;;;;;2.30;2.20;;;;;;;-143.84;99.94;44199.91;5068635;28;20437;-74
2023/04/05 00:41:54;;;;;;;3.23;3.03;;;;;;;-143.84;100.00;44217.06;5068279;28;20506;-74
2023/04/05 00:44:22;;;;;;;2.00;1.83;;;;;;;-143.84;99.85;44211.34;5068206;28;20714;-74
2023/04/05 00:46:51;;;;;;;2.33;2.20;;;;;;;-143.84;99.74;44226.56;5068381;28;20514;-74
2023/04/05 00:49:18;;;;;;;2.60;1.70;;;;;;;-143.84;100.00;44230.38;5068554;28;20448;-74
2023/04/05 00:51:46;;;;;;;2.50;2.30;;;;;;;-143.84;100.00;44228.47;5069796;28;20907;-74
2023/04/05 00:54:14;;;;;;;4.40;2.30;;;;;;;-143.84;100.00;44238.00;5072442;28;20493;-74
2023/04/05 00:56:41;;;;;;;2.53;2.13;;;;;;;-143.84;100.00;44243.69;5072300;28;20432;-74
2023/04/05 00:59:08;;;;;;;2.30;2.20;;;;;;;-143.84;100.00;44245.59;5072319;28;20506;-74
2023/04/05 01:01:40;;;;;;;2.07;1.90;;;;;;;-143.84;100.00;44253.22;5071818;28;20501;-74
2023/04/05 01:04:12;;;;;;;2.50;2.37;;;;;;;-143.84;100.00;44247.50;5072131;28;20452;-74
2023/04/05 01:07:00;;;;;;;2.10;2.00;;;;;;;-143.84;100.00;44251.31;5072188;28;20469;-74
2023/04/05 01:09:43;;;;;;;1.97;1.87;;;;;;;-143.84;100.00;44251.31;5071950;28;20547;-74
2023/04/05 01:12:16;;;;;;;1.83;1.73;;;;;;;-143.84;100.00;44255.13;5072017;28;20549;-75
2023/04/05 01:14:45;;;;;;;2.50;2.20;;;;;;;-143.84;100.00;44262.75;5071617;28;20510;-74
2023/04/05 01:17:12;;;;;;;2.23;2.13;;;;;;;-143.84;100.00;44272.25;5071925;28;20441;-75
2023/04/05 01:19:41;;;;;;;1.97;1.87;;;;;;;-143.84;100.00;44277.97;5071598;28;20432;-74
2023/04/05 01:23:01;;;;;;;1.70;1.60;;;;;;;-143.84;100.00;44277.97;5071541;28;20436;-74
2023/04/05 01:25:49;;;;;;;1.70;1.60;;;;;;;-143.84;100.00;44274.16;5051341;28;20437;-74
2023/04/05 01:28:35;;;;;;;1.90;1.80;;;;;;;-143.84;100.00;44287.50;5051439;28;20499;-74
2023/04/05 01:31:08;;;;;;;2.27;2.10;;;;;;;-143.84;100.00;44279.88;5051271;28;20540;-75
2023/04/05 01:33:44;;;;;;;2.33;1.77;;;;;;;-143.84;100.00;44272.25;5051020;28;20503;-74
2023/04/05 01:36:21;;;;;;;2.00;1.90;;;;;;;-143.84;100.00;44270.34;5054946;28;20954;-73
2023/04/05 01:38:50;;;;;;;1.70;1.60;;;;;;;-143.84;100.00;44270.34;5071906;28;20431;-73
2023/04/05 01:41:17;;;;;;;2.13;2.03;;;;;;;-143.84;100.00;44262.75;5071872;28;20445;-72
2023/04/05 01:43:44;;;;;;;1.77;1.67;;;;;;;-143.84;100.00;44260.84;5071799;28;20490;-73
2023/04/05 01:46:13;;;;;;;1.90;1.80;;;;;;;-143.84;100.00;44270.34;5071563;28;20482;-73
2023/04/05 01:48:40;;;;;;;2.20;2.10;;;;;;;-143.84;100.00;44264.66;5071592;28;20453;-73
2023/04/05 01:51:07;;;;;;;5.40;2.63;;;;;;;-143.84;100.00;44262.75;5070355;28;20480;-72
2023/04/05 01:53:35;;;;;;;2.73;2.53;;;;;;;-143.84;100.00;44274.16;5071432;28;21193;-72
2023/04/05 01:56:02;;;;;;;2.30;2.20;;;;;;;-143.84;100.00;44291.28;5071730;28;20491;-73
2023/04/05 01:58:30;;;;;;;2.27;2.17;;;;;;;-143.84;100.00;44270.34;5071256;28;20448;-72
2023/04/05 02:00:57;;;;;;;2.70;2.60;;;;;;;-143.84;100.00;44260.84;5071621;28;21028;-72
2023/04/05 02:03:26;;;;;;;2.97;2.67;;;;;;;-143.84;100.00;44268.44;5070299;28;20440;-73
2023/04/05 02:05:53;;;;;;;2.40;2.20;;;;;;;-143.84;100.00;44264.66;5071492;28;20502;-73
2023/04/05 02:08:20;;;;;;;2.33;2.17;;;;;;;-143.84;100.00;44279.88;5071599;28;20441;-73
2023/04/05 02:10:47;;;;;;;2.30;2.10;;;;;;;-143.84;100.00;44289.41;5070844;28;20553;-73
2023/04/05 02:13:14;;;;;;;2.60;2.40;;;;;;;-143.84;100.00;44291.28;5071445;28;20503;-73
2023/04/05 02:15:48;;;;;;;2.87;2.67;;;;;;;-143.84;100.00;44297.00;5071130;28;20450;-73
2023/04/05 02:18:15;;;;;;;2.33;2.13;;;;;;;-143.84;100.00;44293.19;5071400;28;20429;-72
2023/04/05 02:20:43;;;;;;;2.87;2.67;;;;;;;-143.84;100.00;44287.50;5070771;28;20448;-72
2023/04/05 02:23:10;;;;;;;2.37;2.23;;;;;;;-143.84;100.00;44287.50;5071265;28;20453;-73
2023/04/05 02:25:38;;;;;;;2.10;2.00;;;;;;;-143.84;100.00;44276.06;5070992;28;21168;-73
2023/04/05 02:28:05;;;;;;;2.10;2.00;;;;;;;-143.84;100.00;44268.44;5071249;28;20437;-73
2023/04/05 02:30:33;;;;;;;2.17;2.07;;;;;;;-143.84;100.00;44258.94;5070751;28;20445;-73
2023/04/05 02:33:00;;;;;;;2.10;1.90;;;;;;;-143.84;100.00;44257.03;5071027;28;20476;-73
2023/04/05 02:35:27;;;;;;;2.07;1.87;;;;;;;-143.84;99.94;44260.84;5070467;28;20946;-73
2023/04/05 02:37:56;;;;;;;2.37;2.17;;;;;;;-143.84;100.00;44255.13;5070981;28;21022;-73
2023/04/05 02:40:24;;;;;;;1.60;1.50;;;;;;;-143.84;100.00;44251.31;5070660;28;21019;-73
2023/04/05 02:42:51;;;;;;;1.90;1.80;;;;;;;-143.84;100.00;44239.91;5070800;28;20821;-73
2023/04/05 02:45:18;;;;;;;1.53;1.43;;;;;;;-143.84;100.00;44232.28;5070548;28;20441;-73
2023/04/05 02:47:45;;;;;;;1.60;1.47;;;;;;;-143.84;99.98;44224.66;5070195;28;20441;-73
2023/04/05 02:50:13;;;;;;;1.93;1.83;;;;;;;-143.84;100.00;44226.56;5069744;28;20437;-73
2023/04/05 02:52:40;;;;;;;1.83;1.73;;;;;;;-143.84;100.00;44232.28;5069205;28;20481;-73
2023/04/05 02:55:09;;;;;;;3.47;1.70;;;;;;;-143.84;100.00;44236.09;5069147;28;20448;-72
2023/04/05 02:57:36;;;;;;;1.50;1.40;;;;;;;-143.84;100.00;44232.28;5069946;28;20440;-73
2023/04/05 03:00:04;;;;;;;1.90;1.80;;;;;;;-143.84;100.00;44236.09;5069906;28;20467;-73
2023/04/05 03:02:31;;;;;;;2.53;1.30;;;;;;;-143.84;100.00;44238.00;5069546;28;20525;-73
2023/04/05 03:05:01;;;;;;;1.57;1.47;;;;;;;-143.84;99.71;44239.91;5070026;28;20437;-72
2023/04/05 03:07:28;;;;;;;6.60;1.30;;;;;;;-143.84;100.00;44234.19;5069252;28;20454;-72
2023/04/05 03:09:55;;;;;;;1.30;1.20;;;;;;;-143.84;99.63;44226.56;5069915;28;20479;-73
2023/04/05 03:12:24;;;;;;;1.30;1.20;;;;;;;-143.84;99.66;44232.28;5070273;28;20476;-72
2023/04/05 03:14:51;;;;;;;1.50;1.40;;;;;;;-143.84;99.82;44228.47;5069653;28;20428;-73
2023/04/05 03:17:18;;;;;;;1.63;1.40;;;;;;;-143.84;100.00;44230.38;5066549;28;20453;-74
2023/04/05 03:19:45;;;;;;;1.90;1.63;;;;;;;-143.84;100.00;44226.56;5070264;28;20434;-73
2023/04/05 03:22:12;;;;;;;1.37;1.27;;;;;;;-143.84;100.00;44224.66;5069866;28;20476;-75
2023/04/05 03:24:41;;;;;;;1.70;1.60;;;;;;;-143.84;100.00;44234.19;5069777;28;20444;-74
2023/04/05 03:27:08;;;;;;;1.20;1.10;;;;;;;-143.84;99.56;44218.94;5069579;28;20433;-73
2023/04/05 03:29:37;;;;;;;1.90;1.80;;;;;;;-143.84;99.43;44205.63;5069941;28;20472;-74
2023/04/05 03:32:04;;;;;;;1.90;1.80;;;;;;;-143.84;99.73;44224.66;5069888;28;20931;-71
2023/04/05 03:34:31;;;;;;;1.47;1.37;;;;;;;-143.84;99.83;44228.47;5070377;28;20432;-71
2023/04/05 03:36:59;;;;;;;1.30;1.20;;;;;;;-143.84;100.00;44230.38;5070356;28;20442;-73
2023/04/05 03:39:26;;;;;;;1.40;1.30;;;;;;;-143.84;100.00;44232.28;5070323;28;20934;-72
2023/04/05 03:41:53;;;;;;;3.47;1.33;;;;;;;-143.84;100.00;44226.56;5070181;28;20480;-71
2023/04/05 03:44:20;;;;;;;1.70;1.60;;;;;;;-143.84;100.00;44234.19;5070262;28;20448;-72
2023/04/05 03:46:49;;;;;;;2.07;1.60;;;;;;;-143.84;100.00;44234.19;5082120;28;20443;-72
2023/04/05 03:49:16;;;;;;;1.13;1.03;;;;;;;-143.84;100.00;44230.38;5089109;28;20427;-72
2023/04/05 03:51:43;;;;;;;1.60;1.50;;;;;;;-143.84;100.00;44224.66;5088087;28;20438;-72
2023/04/05 03:54:10;;;;;;;1.20;1.10;;;;;;;-143.84;99.68;44224.66;5089991;28;20940;-72
2023/04/05 03:56:37;;;;;;;2.03;1.13;;;;;;;-143.84;100.00;44226.56;5089623;28;20427;-71
2023/04/05 03:59:05;;;;;;;1.63;1.53;;;;;;;-143.84;99.86;44232.28;5089483;28;20516;-71
2023/04/05 04:01:32;;;;;;;1.47;1.37;;;;;;;-143.84;99.83;44234.19;5089788;28;20484;-70
2023/04/05 04:04:01;;;;;;;3.60;1.57;;;;;;;-143.84;100.00;44245.59;5090153;28;20897;-71
2023/04/05 04:06:29;;;;;;;2.00;1.80;;;;;;;-143.84;100.00;44236.09;5070955;28;20453;-71
2023/04/05 04:08:57;;;;;;;1.43;1.33;;;;;;;-143.84;99.72;44224.66;5069709;28;20440;-71
2023/04/05 04:11:25;;;;;;;2.13;1.93;;;;;;;-143.84;99.78;44226.56;5069757;28;20475;-71
2023/04/05 04:13:52;;;;;;;1.20;1.10;;;;;;;-143.84;99.89;44224.66;5069530;28;20502;-71
2023/04/05 04:16:19;;;;;;;1.67;1.57;;;;;;;-143.84;99.89;44224.66;5069604;28;20502;-70
2023/04/05 04:18:46;;;;;;;1.57;1.40;;;;;;;-143.84;99.44;44226.56;5069167;28;20440;-71
2023/04/05 04:21:16;;;;;;;2.03;1.93;;;;;;;-143.84;99.21;44215.16;5068368;28;21095;-71
2023/04/05 04:23:44;;;;;;;1.40;1.30;;;;;;;-143.84;99.45;44215.16;5069363;28;20477;-71
2023/04/05 04:26:13;;;;;;;1.90;1.80;;;;;;;-143.84;99.71;44220.84;5070215;28;20855;-71
2023/04/05 04:28:42;;;;;;;1.77;1.67;;;;;;;-143.84;99.58;44239.91;5073539;28;20535;-71
2023/04/05 04:31:12;;;;;;;1.60;1.50;;;;;;;-143.84;99.78;44228.47;5073487;28;20445;-71
2023/04/05 04:33:42;;;;;;;1.13;1.03;;;;;;;-143.84;99.97;44230.38;5073857;28;20444;-70
2023/04/05 04:36:12;;;;;;;1.83;1.73;;;;;;;-143.84;100.00;44232.28;5073709;28;21060;-71
2023/04/05 04:38:43;;;;;;;1.60;1.50;;;;;;;-143.84;99.88;44238.00;5073648;28;20447;-71
2023/04/05 04:41:11;;;;;;;1.90;1.80;;;;;;;-143.84;100.00;44238.00;5073432;28;21028;-70
2023/04/05 04:43:42;;;;;;;1.70;1.60;;;;;;;-143.84;99.83;44239.91;5074058;28;20495;-71
2023/04/05 04:46:13;;;;;;;1.50;1.40;;;;;;;-143.84;99.77;44251.31;5073253;28;20433;-71
2023/04/05 04:48:42;;;;;;;1.33;1.23;;;;;;;-143.84;100.00;44249.41;5072559;28;20844;-70
2023/04/05 04:51:09;;;;;;;1.50;1.40;;;;;;;-143.84;100.00;44241.81;5072033;28;20422;-71
2023/04/05 04:53:36;;;;;;;1.80;1.70;;;;;;;-143.84;99.97;44260.84;5072007;28;20472;-71
2023/04/05 04:56:08;;;;;;;3.03;2.07;;;;;;;-143.84;100.00;44264.66;5072336;28;20432;-71
2023/04/05 04:58:36;;;;;;;2.27;2.10;;;;;;;-143.84;100.00;44264.66;5073186;28;21171;-71
2023/04/05 05:01:08;;;;;;;2.17;1.97;;;;;;;-143.84;100.00;44268.44;5072946;28;21274;-70
2023/04/05 05:03:36;;;;;;;5.23;2.40;;;;;;;-143.84;100.00;44260.84;5073077;28;20488;-71
2023/04/05 05:06:03;;;;;;;2.50;2.30;;;;;;;-143.84;100.00;44272.25;5072794;28;20531;-71
2023/04/05 05:08:31;;;;;;;3.17;2.33;;;;;;;-143.84;100.00;44276.06;5072189;28;20906;-71
2023/04/05 05:10:58;;;;;;;2.50;2.40;;;;;;;-143.84;100.00;44276.06;5072588;28;20468;-71
2023/04/05 05:13:27;;;;;;;2.13;1.93;;;;;;;-143.84;100.00;44270.34;5073156;28;20450;-71
2023/04/05 05:15:54;;;;;;;3.00;2.70;;;;;;;-143.84;100.00;44274.16;5073066;28;20444;-71
2023/04/05 05:18:21;;;;;;;1.93;1.83;;;;;;;-143.84;100.00;44283.69;5072908;28;20482;-71
2023/04/05 05:20:51;;;;;;;2.77;2.57;;;;;;;-143.84;100.00;44293.19;5072680;28;20834;-71
2023/04/05 05:23:19;;;;;;;2.73;2.20;;;;;;;-143.84;100.00;44289.41;5072917;28;20974;-71
2023/04/05 05:25:47;;;;;;;7.47;3.20;;;;;;;-143.84;100.00;44283.69;5072494;28;20449;-71
2023/04/05 05:28:15;;;;;;;2.20;2.10;;;;;;;-143.84;100.00;44285.59;5072876;28;20831;-70
2023/04/05 05:30:44;;;;;;;2.50;2.30;;;;;;;-143.84;100.00;44281.78;5072627;28;20445;-70
2023/04/05 05:33:11;;;;;;;4.93;3.80;;;;;;;-143.84;100.00;44289.41;5072869;28;20456;-71
2023/04/05 05:35:38;;;;;;;3.50;3.20;;;;;;;-143.84;100.00;44276.06;5072236;28;20509;-71
2023/04/05 05:38:05;;;;;;;3.00;2.77;;;;;;;-143.84;100.00;44274.16;5071690;28;20437;-71
2023/04/05 05:40:32;;;;;;;4.80;3.53;;;;;;;-143.84;100.00;44264.66;5072441;28;20472;-70
2023/04/05 05:42:59;;;;;;;5.83;3.83;;;;;;;-143.84;99.89;44264.66;5072563;28;20477;-71
2023/04/05 05:45:27;;;;;;;3.77;3.47;;;;;;;-143.84;100.00;44274.16;5072350;28;20432;-71
2023/04/05 05:47:56;;;;;;;2.73;2.60;;;;;;;-143.84;100.00;44272.25;5072315;28;20437;-71
2023/04/05 05:50:23;;;;;;;3.50;2.97;;;;;;;-143.84;100.00;44277.97;5072363;28;21125;-71
2023/04/05 05:52:50;;;;;;;3.17;2.87;;;;;;;-143.84;100.00;44257.03;5072600;28;20510;-71
2023/04/05 05:55:18;;;;;;;4.23;3.87;;;;;;;-143.84;100.00;44262.75;5072686;28;21391;-71
2023/04/05 05:57:45;;;;;;;3.07;2.87;;;;;;;-143.84;100.00;44264.66;5072187;28;21302;-71
2023/04/05 06:00:13;;;;;;;3.70;3.50;;;;;;;-143.84;99.79;44262.75;5072021;28;20425;-71
2023/04/05 06:02:40;;;;;;;4.60;4.20;;;;;;;-143.84;100.00;44266.53;5071677;28;20941;-70
2023/04/05 06:05:09;;;;;;;5.00;3.87;;;;;;;-143.84;99.90;44257.03;5071623;28;20533;-71
2023/04/05 06:07:37;;;;;;;3.10;2.70;;;;;;;-143.84;100.00;44241.81;5071988;28;20911;-71
2023/04/05 06:10:05;;;;;;;3.93;3.63;;;;;;;-143.84;99.82;44236.09;5071866;28;20444;-71
2023/04/05 06:12:32;;;;;;;3.80;3.50;;;;;;;-143.84;99.91;44241.81;5071714;28;20552;-71
2023/04/05 06:15:00;;;;;;;5.87;4.20;;;;;;;-143.84;99.75;44239.91;5071834;28;21202;-71
2023/04/05 06:17:27;;;;;;;4.93;4.50;;;;;;;-143.84;99.52;44241.81;5071417;28;20510;-70
2023/04/05 06:19:54;;;;;;;4.40;3.60;;;;;;;-143.84;99.16;44220.84;5071955;28;20943;-71
2023/04/05 06:22:23;;;;;;;4.70;4.07;;;;;;;-143.84;99.48;44207.53;5071535;28;20499;-70
2023/04/05 06:24:50;;;;;;;5.43;4.00;;;;;;;-143.84;99.28;44194.22;5071349;28;20476;-71
2023/04/05 06:27:18;;;;;;;4.53;4.07;;;;;;;-143.84;98.41;44173.25;5071472;28;20433;-71
2023/04/05 06:29:45;;;;;;;8.33;4.00;;;;;;;-143.84;98.25;44175.16;5070983;28;20502;-71
2023/04/05 06:32:12;;;;;;;3.73;3.47;;;;;;;-143.84;98.46;44152.31;5071158;28;20441;-71
2023/04/05 06:34:39;;;;;;;8.37;4.70;;;;;;;-143.84;97.92;44148.53;5063231;28;20436;-70
2023/04/05 06:37:06;;;;;;;4.63;4.17;;;;;;;-143.84;98.01;44133.28;5063480;28;21271;-71
2023/04/05 06:39:35;;;;;;;4.63;4.23;;;;;;;-143.84;97.61;44131.38;5056321;28;20437;-71
2023/04/05 06:42:02;;;;;;;6.07;3.83;;;;;;;-143.84;96.90;44112.34;5062637;28;20974;-71
2023/04/05 06:44:30;;;;;;;3.80;3.50;;;;;;;-143.84;96.84;44119.97;5061695;28;20809;-71
2023/04/05 06:46:57;;;;;;;3.90;3.60;;;;;;;-143.84;96.82;44116.16;5059127;28;20506;-70
2023/04/05 06:49:24;;;;;;;4.87;4.47;;;;;;;-143.84;96.76;44106.63;5066808;28;20787;-70
2023/04/05 06:51:51;;;;;;;5.27;3.30;;;;;;;-143.84;96.36;44095.22;5061444;28;20502;-71
2023/04/05 06:54:20;;;;;;;4.80;4.07;;;;;;;-143.84;95.45;44066.66;5058733;28;20442;-70
2023/04/05 06:56:48;;;;;;;4.87;4.20;;;;;;;-143.84;95.42;44068.56;5053309;28;20450;-72
2023/04/05 06:59:15;;;;;;;4.00;3.70;;;;;;;-143.84;95.53;44074.28;5066105;28;20457;-70
2023/04/05 07:01:43;;;;;;;4.03;3.73;;;;;;;-143.84;94.91;44045.72;5058375;28;20440;-71
2023/04/05 07:04:10;;;;;;;4.10;3.80;;;;;;;-143.84;93.72;44030.50;5058697;28;20465;-70
2023/04/05 07:06:37;;;;;;;3.83;3.50;;;;;;;-143.84;94.00;44034.31;5061030;28;21037;-70
2023/04/05 07:09:05;;;;;;;4.07;3.70;;;;;;;-143.84;94.42;44026.69;5067250;28;20449;-71
2023/04/05 07:11:32;;;;;;;3.77;3.47;;;;;;;-143.84;93.04;44007.66;5056674;28;20465;-70
2023/04/05 07:14:01;;;;;;;4.10;3.50;;;;;;;-143.84;92.83;44005.75;5050586;28;20532;-70
2023/04/05 07:16:28;;;;;;;4.77;3.47;;;;;;;-143.84;93.20;44005.75;5050813;28;20432;-70
2023/04/05 07:18:56;;;;;;;3.07;2.87;;;;;;;-143.84;92.93;44011.47;5050908;28;20436;-70
2023/04/05 07:21:24;;;;;;;3.60;3.27;;;;;;;-143.84;92.59;43996.22;5051242;28;20513;-71
2023/04/05 07:23:52;;;;;;;3.20;2.90;;;;;;;-143.84;92.20;43984.81;5058580;28;20484;-71
2023/04/05 07:26:21;;;;;;;3.00;2.80;;;;;;;-143.84;91.61;43942.94;5065407;28;20540;-68
2023/04/05 07:28:48;;;;;;;5.33;2.90;;;;;;;-143.84;91.75;43979.09;5056447;28;20539;-68
2023/04/05 07:31:16;;;;;;;3.03;2.83;;;;;;;-143.84;90.75;43929.59;5050819;28;20442;-69
2023/04/05 07:33:43;;;;;;;3.47;3.17;;;;;;;-143.84;90.23;43922.00;5050405;28;21040;-68
2023/04/05 07:36:11;;;;;;;3.20;2.90;;;;;;;-143.84;90.07;43929.59;5055572;28;20437;-68
2023/04/05 07:38:38;;;;;;;3.77;3.47;;;;;;;-143.84;90.18;43906.75;5059535;28;20445;-69
2023/04/05 07:41:05;;;;;;;4.17;3.87;;;;;;;-143.84;90.13;43908.66;5061629;28;20444;-69
2023/04/05 07:43:32;;;;;;;3.63;3.33;;;;;;;-143.84;89.50;43922.00;5050476;28;21120;-69
2023/04/05 07:46:03;;;;;;;4.67;3.97;;;;;;;-143.84;88.63;43887.72;5058177;28;20449;-69
2023/04/05 07:48:31;;;;;;;3.30;2.90;;;;;;;-143.84;88.12;43883.91;5050325;28;20445;-68
2023/04/05 07:51:04;;;;;;;2.63;2.43;;;;;;;-143.84;88.01;43853.47;5049687;28;20461;-68
2023/04/05 07:53:31;;;;;;;2.73;2.53;;;;;;;-143.84;87.03;43878.22;5049195;28;20446;-69
2023/04/05 07:55:58;;;;;;;3.20;2.90;;;;;;;-143.84;87.29;43857.28;5049660;28;20511;-69
2023/04/05 07:58:29;;;;;;;3.10;2.90;;;;;;;-143.84;87.35;43853.47;5050245;28;20946;-69
2023/04/05 08:01:00;;;;;;;3.03;2.37;;;;;;;-143.84;86.68;43929.59;5049612;28;20440;-69
2023/04/05 08:03:27;;;;;;;3.40;3.10;;;;;;;-143.84;85.48;44019.06;5050107;28;20521;-69
2023/04/05 08:05:56;;;;;;;2.63;2.43;;;;;;;-143.84;85.74;44015.25;5049832;28;20430;-69
2023/04/05 08:08:24;;;;;;;7.37;3.97;;;;;;;-143.84;86.64;43931.50;5048509;28;20453;-68
2023/04/05 08:10:52;;;;;;;2.87;2.60;;;;;;;-143.84;87.28;43851.56;5047738;28;20568;-68
2023/04/05 08:13:19;;;;;;;4.47;3.03;;;;;;;-143.84;86.85;43880.13;5047724;28;20507;-69
2023/04/05 08:15:46;;;;;;;2.77;2.57;;;;;;;-143.84;84.97;44186.59;5049482;28;20430;-68
2023/04/05 08:18:13;;;;;;;3.17;2.97;;;;;;;-143.84;85.54;44017.16;5048466;28;20441;-69
2023/04/05 08:20:40;;;;;;;3.50;3.20;;;;;;;-143.84;85.85;43937.22;5049065;28;20519;-69
2023/04/05 08:23:09;;;;;;;3.17;2.97;;;;;;;-143.84;85.60;43927.69;5049275;28;20489;-69
2023/04/05 08:25:36;;;;;;;2.80;2.60;;;;;;;-143.84;83.98;44435.97;5049829;28;20442;-69
2023/04/05 08:28:03;;;;;;;2.43;2.20;;;;;;;-143.84;83.24;44784.41;5049893;28;20933;-68
2023/04/05 08:30:31;;;;;;;2.60;2.40;;;;;;;-143.84;84.35;44508.31;5049551;28;20449;-69
2023/04/05 08:32:58;;;;;;;7.13;2.77;;;;;;;-143.84;84.66;44289.41;5049802;28;20457;-69
2023/04/05 08:35:25;;;;;;;2.40;2.30;;;;;;;-143.84;83.46;44557.84;5049678;28;20446;-70
2023/04/05 08:37:52;;;;;;;4.00;2.33;;;;;;;-143.84;83.52;44584.47;5049555;28;20572;-70
2023/04/05 08:40:21;;;;;;;2.93;2.73;;;;;;;-143.84;83.31;44706.34;5049390;28;20511;-69
2023/04/05 08:43:03;;;;;;;3.00;2.50;;;;;;;-143.84;81.75;44971.00;5049140;28;20438;-69
2023/04/05 08:45:34;;;;;;;2.43;2.30;;;;;;;-143.84;83.01;44725.38;5049679;28;20426;-70
2023/04/05 08:48:01;;;;;;;2.13;1.80;;;;;;;-143.84;82.31;44812.97;5049278;28;20500;-70
2023/04/05 08:50:28;;;;;;;2.10;2.00;;;;;;;-143.84;81.55;44910.06;5048454;28;20461;-69
2023/04/05 08:52:56;;;;;;;2.17;2.07;;;;;;;-143.84;82.44;44832.00;5048966;28;20452;-69
2023/04/05 08:55:25;;;;;;;2.53;2.33;;;;;;;-143.84;82.35;44854.84;5049400;28;20822;-69
2023/04/05 08:57:57;;;;;;;2.73;2.53;;;;;;;-143.84;82.72;44713.94;5049712;28;20442;-69
2023/04/05 09:00:26;;;;;;;3.70;2.43;;;;;;;-143.84;82.08;44881.50;5049219;28;20469;-69
2023/04/05 09:02:57;;;;;;;5.47;5.07;;;;;;;-143.84;80.60;45005.28;5049537;28;20437;-69
2023/04/05 09:05:24;;;;;;;3.60;2.83;;;;;;;-143.84;81.55;44908.16;5049097;28;20445;-69
2023/04/05 09:07:52;;;;;;;4.27;2.23;;;;;;;-143.84;81.15;44999.56;5049234;28;20512;-69
2023/04/05 09:10:21;;;;;;;2.20;2.10;;;;;;;-143.84;81.84;44908.16;5049191;28;20858;-69
2023/04/05 09:12:51;;;;;;;2.40;2.23;;;;;;;-143.84;81.54;44950.06;5030803;28;20446;-69
2023/04/05 09:15:23;;;;;;;3.60;2.97;;;;;;;-143.84;81.33;44940.53;5033337;28;20957;-70
2023/04/05 09:17:51;;;;;;;2.83;2.60;;;;;;;-143.84;83.04;44725.38;5032953;28;20450;-69
2023/04/05 09:20:18;;;;;;;2.20;2.10;;;;;;;-143.84;82.33;44740.59;5033075;28;20447;-69
2023/04/05 09:22:46;;;;;;;2.10;2.00;;;;;;;-143.84;81.55;44925.31;5033039;28;20439;-69
2023/04/05 09:25:33;;;;;;;2.30;2.20;;;;;;;-143.84;82.24;44713.94;5032060;28;20528;-69
2023/04/05 09:28:02;;;;;;;9.37;2.40;;;;;;;-143.84;81.58;44873.88;5032522;28;20492;-69
2023/04/05 09:30:29;;;;;;;2.40;2.13;;;;;;;-143.84;81.27;44929.09;5031800;28;20450;-69
2023/04/05 09:32:57;;;;;;;2.73;2.47;;;;;;;-143.84;82.12;44851.03;5032069;28;20446;-69
2023/04/05 09:35:27;;;;;;;3.20;2.10;;;;;;;-143.84;81.80;44856.75;5032049;28;20515;-69
2023/04/05 09:37:56;;;;;;;2.00;1.90;;;;;;;-143.84;82.46;44790.13;5032726;28;20450;-69
2023/04/05 09:40:24;;;;;;;2.03;1.93;;;;;;;-143.84;80.67;44972.91;5033127;28;20434;-69
2023/04/05 09:42:52;;;;;;;2.27;2.17;;;;;;;-143.84;81.67;44896.75;5032668;28;20492;-70
2023/04/05 09:45:21;;;;;;;3.70;3.20;;;;;;;-143.84;82.18;44816.78;5032615;28;20486;-69
2023/04/05 09:47:56;;;;;;;2.23;2.13;;;;;;;-143.84;81.25;44953.88;5032232;28;20446;-69
2023/04/05 09:50:23;;;;;;;2.77;2.57;;;;;;;-143.84;80.05;45064.31;5031751;28;20442;-69
2023/04/05 09:52:51;;;;;;;4.23;2.40;;;;;;;-143.84;79.20;45056.69;5032325;28;20450;-70
2023/04/05 09:55:27;;;;;;;2.23;2.13;;;;;;;-143.84;78.31;45121.44;5032050;28;20505;-70
2023/04/05 09:57:54;;;;;;;2.27;2.07;;;;;;;-143.84;78.09;45150.00;5032688;28;20812;-69
2023/04/05 10:00:23;;;;;;;1.90;1.80;;;;;;;-143.84;77.74;45121.44;5032142;28;20474;-69
2023/04/05 10:02:53;;;;;;;2.40;2.30;;;;;;;-143.84;78.36;45117.63;5032122;28;20439;-69
2023/04/05 10:05:25;;;;;;;2.10;2.00;;;;;;;-143.84;77.13;45140.47;5032066;28;20482;-70
2023/04/05 10:07:52;;;;;;;2.57;2.47;;;;;;;-143.84;78.93;45060.50;5032327;28;20438;-70
2023/04/05 10:10:21;;;;;;;2.70;2.50;;;;;;;-143.84;78.49;45123.34;5032422;28;20464;-70
2023/04/05 10:12:50;;;;;;;5.07;2.60;;;;;;;-143.84;77.10;45144.28;5012268;28;20938;-69
2023/04/05 10:15:18;;;;;;;2.90;2.70;;;;;;;-143.84;77.27;45155.69;5012126;28;20951;-69
2023/04/05 10:17:55;;;;;;;3.17;2.47;;;;;;;-143.84;76.19;45170.94;5012297;28;20512;-69
2023/04/05 10:20:23;;;;;;;2.13;2.03;;;;;;;-143.84;75.13;45174.75;5012361;28;20445;-69
2023/04/05 10:23:06;;;;;;;2.57;2.37;;;;;;;-143.84;74.25;45188.06;5012240;28;20510;-69
2023/04/05 10:25:47;;;;;;;2.77;2.57;;;;;;;-143.84;74.64;45191.88;5024973;28;20984;-70
2023/04/05 10:28:23;;;;;;;2.70;2.50;;;;;;;-143.84;74.38;45186.16;5031954;28;20440;-70
2023/04/05 10:30:54;;;;;;;2.20;2.10;;;;;;;-143.84;73.84;45195.69;5031878;28;20872;-70
2023/04/05 10:33:35;;;;;;;4.60;2.73;;;;;;;-143.84;73.92;45188.06;5031822;28;20441;-70
2023/04/05 10:36:15;;;;;;;2.53;2.33;;;;;;;-143.84;73.47;45180.47;5032012;28;20904;-72
2023/04/05 10:39:00;;;;;;;2.43;2.33;;;;;;;-143.84;75.27;45140.47;5031938;28;20445;-70
2023/04/05 10:41:30;;;;;;;1.93;1.83;;;;;;;-143.84;75.73;45148.09;5030427;28;20551;-70
2023/04/05 10:43:59;;;;;;;2.83;2.63;;;;;;;-143.84;74.05;45151.91;5030355;28;20485;-70
2023/04/05 10:46:26;;;;;;;2.10;2.00;;;;;;;-143.84;71.88;45209.03;5030457;28;20952;-69
2023/04/05 10:49:04;;;;;;;1.90;1.80;;;;;;;-143.84;71.88;45205.22;5031641;28;20883;-70
2023/04/05 10:51:32;;;;;;;2.70;1.90;;;;;;;-143.84;72.21;45144.28;5031272;28;21106;-69
2023/04/05 10:54:00;;;;;;;2.40;2.27;;;;;;;-143.84;72.22;45178.56;5031510;28;20518;-69
2023/04/05 10:56:28;;;;;;;6.30;3.70;;;;;;;-143.84;73.47;45174.75;5031918;28;21033;-70
2023/04/05 10:58:56;;;;;;;4.27;3.37;;;;;;;-143.84;74.76;45163.31;5029982;28;20462;-69
2023/04/05 11:01:24;;;;;;;2.63;2.43;;;;;;;-143.84;73.97;45189.97;5029270;28;20445;-70
2023/04/05 11:03:53;;;;;;;2.37;2.17;;;;;;;-143.84;73.91;45153.81;5029923;28;20485;-70
2023/04/05 11:06:32;;;;;;;2.10;2.00;;;;;;;-143.84;73.63;45170.94;5030122;28;20441;-70
2023/04/05 11:09:01;;;;;;;1.60;1.50;;;;;;;-143.84;73.19;45172.84;5029743;28;20572;-70
2023/04/05 11:11:39;;;;;;;2.23;2.03;;;;;;;-143.84;73.63;45167.13;5048261;28;21010;-70
2023/04/05 11:14:20;;;;;;;1.60;1.50;;;;;;;-143.84;73.49;45174.75;5069885;28;21006;-71
2023/04/05 11:16:52;;;;;;;1.90;1.80;;;;;;;-143.84;73.99;45203.31;5069416;28;20817;-70
2023/04/05 11:19:19;;;;;;;1.97;1.77;;;;;;;-143.84;73.84;45197.59;5070046;28;21199;-70
2023/04/05 11:21:48;;;;;;;2.17;2.07;;;;;;;-143.84;73.81;45146.19;5069767;28;20937;-70
2023/04/05 11:24:15;;;;;;;1.33;1.23;;;;;;;-143.84;73.16;45172.84;5070094;28;20513;-70